sensor_id;sensor_type;location;lat;lon;timestamp;pressure;altitude;pressure_sealevel;temperature;humidity
21395;BME280;10858;42.714;23.180;2023-04-15T00:00:40;93626.72;;;9.34;70.62
21395;BME280;10858;42.714;23.180;2023-04-15T00:03:06;93624.31;;;9.13;71.61
21395;BME280;10858;42.714;23.180;2023-04-15T00:05:33;93631.41;;;9.50;70.02
21395;BME280;10858;42.714;23.180;2023-04-15T00:08:00;93622.78;;;9.38;70.97
21395;BME280;10858;42.714;23.180;2023-04-15T00:10:26;93614.88;;;9.65;70.79
21395;BME280;10858;42.714;23.180;2023-04-15T00:12:53;93621.88;;;9.29;72.24
21395;BME280;10858;42.714;23.180;2023-04-15T00:15:19;93630.94;;;9.27;71.12
21395;BME280;10858;42.714;23.180;2023-04-15T00:17:45;93628.91;;;9.11;72.73
21395;BME280;10858;42.714;23.180;2023-04-15T00:20:12;93630.72;;;9.11;71.79
21395;BME280;10858;42.714;23.180;2023-04-15T00:22:39;93640.19;;;9.13;72.35
21395;BME280;10858;42.714;23.180;2023-04-15T00:25:05;93628.34;;;9.44;71.74
21395;BME280;10858;42.714;23.180;2023-04-15T00:27:32;93631.94;;;9.53;71.12
21395;BME280;10858;42.714;23.180;2023-04-15T00:29:58;93627.66;;;9.42;70.80
21395;BME280;10858;42.714;23.180;2023-04-15T00:32:24;93623.47;;;9.50;70.88
21395;BME280;10858;42.714;23.180;2023-04-15T00:34:50;93620.31;;;9.36;71.18
21395;BME280;10858;42.714;23.180;2023-04-15T00:37:17;93620.47;;;9.35;71.53
21395;BME280;10858;42.714;23.180;2023-04-15T00:39:43;93620.84;;;9.40;71.52
21395;BME280;10858;42.714;23.180;2023-04-15T00:42:10;93625.13;;;9.23;72.53
21395;BME280;10858;42.714;23.180;2023-04-15T00:44:36;93642.53;;;8.61;74.78
21395;BME280;10858;42.714;23.180;2023-04-15T00:47:03;93644.50;;;8.20;76.98
21395;BME280;10858;42.714;23.180;2023-04-15T00:49:30;93631.03;;;8.42;76.34
21395;BME280;10858;42.714;23.180;2023-04-15T00:51:57;93630.63;;;8.28;76.70
21395;BME280;10858;42.714;23.180;2023-04-15T00:54:23;93639.25;;;8.39;76.36
21395;BME280;10858;42.714;23.180;2023-04-15T00:56:50;93631.75;;;8.25;77.20
21395;BME280;10858;42.714;23.180;2023-04-15T00:59:17;93625.16;;;8.20;77.18
21395;BME280;10858;42.714;23.180;2023-04-15T01:01:44;93636.03;;;8.07;77.63
21395;BME280;10858;42.714;23.180;2023-04-15T01:04:10;93634.63;;;8.03;77.36
21395;BME280;10858;42.714;23.180;2023-04-15T01:06:37;93630.59;;;7.99;78.15
21395;BME280;10858;42.714;23.180;2023-04-15T01:09:03;93627.22;;;7.88;78.56
21395;BME280;10858;42.714;23.180;2023-04-15T01:11:30;93629.88;;;7.78;79.23
21395;BME280;10858;42.714;23.180;2023-04-15T01:13:58;93629.47;;;7.92;78.78
21395;BME280;10858;42.714;23.180;2023-04-15T01:16:25;93631.41;;;8.00;78.42
21395;BME280;10858;42.714;23.180;2023-04-15T01:18:53;93632.25;;;8.10;77.52
21395;BME280;10858;42.714;23.180;2023-04-15T01:21:20;93634.25;;;8.27;76.76
21395;BME280;10858;42.714;23.180;2023-04-15T01:23:47;93652.97;;;8.05;76.76
21395;BME280;10858;42.714;23.180;2023-04-15T01:26:14;93654.06;;;7.93;77.72
21395;BME280;10858;42.714;23.180;2023-04-15T01:28:41;93647.69;;;7.95;77.39
21395;BME280;10858;42.714;23.180;2023-04-15T01:31:14;93645.06;;;8.14;76.63
21395;BME280;10858;42.714;23.180;2023-04-15T01:33:42;93650.03;;;7.79;77.71
21395;BME280;10858;42.714;23.180;2023-04-15T01:36:09;93654.44;;;7.59;78.64
21395;BME280;10858;42.714;23.180;2023-04-15T01:38:36;93653.38;;;7.81;77.36
21395;BME280;10858;42.714;23.180;2023-04-15T01:41:03;93656.44;;;7.96;76.43
21395;BME280;10858;42.714;23.180;2023-04-15T01:43:29;93646.69;;;7.67;76.99
21395;BME280;10858;42.714;23.180;2023-04-15T01:45:56;93652.38;;;7.23;79.67
21395;BME280;10858;42.714;23.180;2023-04-15T01:48:22;93645.94;;;7.07;79.88
21395;BME280;10858;42.714;23.180;2023-04-15T01:50:49;93653.97;;;7.05;79.94
21395;BME280;10858;42.714;23.180;2023-04-15T01:53:15;93653.03;;;6.85;80.14
21395;BME280;10858;42.714;23.180;2023-04-15T01:55:42;93646.50;;;6.59;80.73
21395;BME280;10858;42.714;23.180;2023-04-15T01:58:08;93641.22;;;6.59;80.64
21395;BME280;10858;42.714;23.180;2023-04-15T02:00:34;93635.84;;;6.40;80.53
21395;BME280;10858;42.714;23.180;2023-04-15T02:03:01;93635.47;;;6.24;80.89
21395;BME280;10858;42.714;23.180;2023-04-15T02:05:27;93643.75;;;6.20;81.51
21395;BME280;10858;42.714;23.180;2023-04-15T02:07:53;93646.00;;;6.24;80.77
21395;BME280;10858;42.714;23.180;2023-04-15T02:10:20;93644.91;;;6.06;82.04
21395;BME280;10858;42.714;23.180;2023-04-15T02:12:46;93649.53;;;6.34;80.13
21395;BME280;10858;42.714;23.180;2023-04-15T02:15:13;93657.31;;;6.15;80.54
21395;BME280;10858;42.714;23.180;2023-04-15T02:17:39;93657.19;;;6.37;78.47
21395;BME280;10858;42.714;23.180;2023-04-15T02:20:06;93669.19;;;6.30;78.52
21395;BME280;10858;42.714;23.180;2023-04-15T02:22:33;93669.66;;;6.35;78.24
21395;BME280;10858;42.714;23.180;2023-04-15T02:24:59;93666.03;;;5.95;79.73
21395;BME280;10858;42.714;23.180;2023-04-15T02:27:26;93665.25;;;6.04;78.87
21395;BME280;10858;42.714;23.180;2023-04-15T02:29:53;93668.44;;;5.87;79.18
21395;BME280;10858;42.714;23.180;2023-04-15T02:32:20;93674.41;;;5.89;78.86
21395;BME280;10858;42.714;23.180;2023-04-15T02:34:48;93665.81;;;5.87;78.37
21395;BME280;10858;42.714;23.180;2023-04-15T02:37:14;93673.25;;;5.71;79.54
21395;BME280;10858;42.714;23.180;2023-04-15T02:39:41;93668.75;;;5.40;81.84
21395;BME280;10858;42.714;23.180;2023-04-15T02:42:07;93670.06;;;5.23;82.64
21395;BME280;10858;42.714;23.180;2023-04-15T02:44:33;93668.06;;;5.15;83.70
21395;BME280;10858;42.714;23.180;2023-04-15T02:47:01;93677.63;;;5.16;83.67
21395;BME280;10858;42.714;23.180;2023-04-15T02:49:28;93667.56;;;5.22;83.86
21395;BME280;10858;42.714;23.180;2023-04-15T02:51:57;93665.53;;;5.25;84.33
21395;BME280;10858;42.714;23.180;2023-04-15T02:54:25;93666.84;;;5.42;83.23
21395;BME280;10858;42.714;23.180;2023-04-15T02:56:54;93674.72;;;5.53;82.28
21395;BME280;10858;42.714;23.180;2023-04-15T02:59:21;93670.69;;;5.15;83.67
21395;BME280;10858;42.714;23.180;2023-04-15T03:01:47;93667.34;;;5.25;84.23
21395;BME280;10858;42.714;23.180;2023-04-15T03:04:14;93669.00;;;5.26;82.85
21395;BME280;10858;42.714;23.180;2023-04-15T03:06:40;93674.03;;;5.17;82.91
21395;BME280;10858;42.714;23.180;2023-04-15T03:09:06;93683.84;;;5.04;82.46
21395;BME280;10858;42.714;23.180;2023-04-15T03:11:32;93675.47;;;4.99;83.67
21395;BME280;10858;42.714;23.180;2023-04-15T03:14:00;93676.19;;;4.68;85.13
21395;BME280;10858;42.714;23.180;2023-04-15T03:16:26;93678.47;;;4.73;85.64
21395;BME280;10858;42.714;23.180;2023-04-15T03:18:53;93681.84;;;4.97;83.98
21395;BME280;10858;42.714;23.180;2023-04-15T03:21:19;93691.47;;;5.07;82.94
21395;BME280;10858;42.714;23.180;2023-04-15T03:23:45;93695.31;;;4.92;84.04
21395;BME280;10858;42.714;23.180;2023-04-15T03:26:27;93697.47;;;4.98;82.67
21395;BME280;10858;42.714;23.180;2023-04-15T03:28:54;93705.09;;;5.01;81.52
21395;BME280;10858;42.714;23.180;2023-04-15T03:31:20;93703.91;;;4.94;81.78
21395;BME280;10858;42.714;23.180;2023-04-15T03:33:46;93703.31;;;4.91;82.06
21395;BME280;10858;42.714;23.180;2023-04-15T03:36:13;93702.13;;;5.06;81.17
21395;BME280;10858;42.714;23.180;2023-04-15T03:38:39;93704.63;;;5.07;82.69
21395;BME280;10858;42.714;23.180;2023-04-15T03:41:05;93715.38;;;4.82;82.62
21395;BME280;10858;42.714;23.180;2023-04-15T03:43:32;93717.16;;;4.82;82.01
21395;BME280;10858;42.714;23.180;2023-04-15T03:45:58;93712.97;;;4.68;82.89
21395;BME280;10858;42.714;23.180;2023-04-15T03:48:24;93735.13;;;4.53;84.14
21395;BME280;10858;42.714;23.180;2023-04-15T03:50:51;93723.00;;;4.85;82.91
21395;BME280;10858;42.714;23.180;2023-04-15T03:53:17;93727.47;;;4.50;84.66
21395;BME280;10858;42.714;23.180;2023-04-15T03:55:43;93731.22;;;4.70;84.71
21395;BME280;10858;42.714;23.180;2023-04-15T03:58:10;93729.81;;;4.88;83.90
21395;BME280;10858;42.714;23.180;2023-04-15T04:00:38;93731.38;;;4.90;83.22
21395;BME280;10858;42.714;23.180;2023-04-15T04:03:04;93725.88;;;4.93;82.58
21395;BME280;10858;42.714;23.180;2023-04-15T04:05:31;93733.78;;;5.04;83.38
21395;BME280;10858;42.714;23.180;2023-04-15T04:07:57;93732.69;;;5.29;82.42
21395;BME280;10858;42.714;23.180;2023-04-15T04:10:23;93738.81;;;5.41;82.35
21395;BME280;10858;42.714;23.180;2023-04-15T04:12:49;93740.34;;;5.32;83.59
21395;BME280;10858;42.714;23.180;2023-04-15T04:15:16;93742.38;;;5.73;83.16
21395;BME280;10858;42.714;23.180;2023-04-15T04:17:42;93732.03;;;6.03;85.19
21395;BME280;10858;42.714;23.180;2023-04-15T04:20:08;93730.88;;;5.85;83.18
21395;BME280;10858;42.714;23.180;2023-04-15T04:22:39;93725.63;;;6.48;82.77
21395;BME280;10858;42.714;23.180;2023-04-15T04:25:07;93723.25;;;6.66;82.02
21395;BME280;10858;42.714;23.180;2023-04-15T04:27:33;93729.06;;;7.31;80.67
21395;BME280;10858;42.714;23.180;2023-04-15T04:30:00;93736.34;;;7.48;79.82
21395;BME280;10858;42.714;23.180;2023-04-15T04:32:27;93732.91;;;8.16;78.43
21395;BME280;10858;42.714;23.180;2023-04-15T04:34:53;93738.81;;;8.58;77.57
21395;BME280;10858;42.714;23.180;2023-04-15T04:37:19;93738.50;;;9.09;76.08
21395;BME280;10858;42.714;23.180;2023-04-15T04:39:45;93738.69;;;9.44;72.84
21395;BME280;10858;42.714;23.180;2023-04-15T04:42:12;93743.50;;;9.68;72.26
21395;BME280;10858;42.714;23.180;2023-04-15T04:44:38;93744.50;;;10.66;70.51
21395;BME280;10858;42.714;23.180;2023-04-15T04:47:04;93752.03;;;10.43;68.22
21395;BME280;10858;42.714;23.180;2023-04-15T04:49:32;93751.09;;;10.35;69.43
21395;BME280;10858;42.714;23.180;2023-04-15T04:51:58;93756.31;;;9.16;71.04
21395;BME280;10858;42.714;23.180;2023-04-15T04:54:25;93755.63;;;9.97;67.45
21395;BME280;10858;42.714;23.180;2023-04-15T04:56:52;93757.75;;;9.94;68.22
21395;BME280;10858;42.714;23.180;2023-04-15T04:59:18;93759.34;;;11.88;64.45
21395;BME280;10858;42.714;23.180;2023-04-15T05:01:45;93757.44;;;13.38;60.34
21395;BME280;10858;42.714;23.180;2023-04-15T05:04:11;93756.94;;;14.91;57.01
21395;BME280;10858;42.714;23.180;2023-04-15T05:06:37;93765.69;;;15.76;51.91
21395;BME280;10858;42.714;23.180;2023-04-15T05:09:04;93766.13;;;17.67;47.97
21395;BME280;10858;42.714;23.180;2023-04-15T05:11:30;93768.81;;;18.85;43.35
21395;BME280;10858;42.714;23.180;2023-04-15T05:13:56;93776.69;;;19.40;40.81
21395;BME280;10858;42.714;23.180;2023-04-15T05:16:24;93770.31;;;20.59;37.85
21395;BME280;10858;42.714;23.180;2023-04-15T05:18:50;93769.25;;;21.37;36.98
21395;BME280;10858;42.714;23.180;2023-04-15T05:21:17;93762.31;;;21.91;35.83
21395;BME280;10858;42.714;23.180;2023-04-15T05:23:43;93759.03;;;23.18;34.93
21395;BME280;10858;42.714;23.180;2023-04-15T05:26:10;93772.31;;;23.55;31.84
21395;BME280;10858;42.714;23.180;2023-04-15T05:28:36;93767.78;;;23.67;30.93
21395;BME280;10858;42.714;23.180;2023-04-15T05:31:02;93771.31;;;23.68;31.84
21395;BME280;10858;42.714;23.180;2023-04-15T05:33:29;93763.06;;;23.27;30.90
21395;BME280;10858;42.714;23.180;2023-04-15T05:35:55;93771.53;;;22.09;32.21
21395;BME280;10858;42.714;23.180;2023-04-15T05:38:21;93769.31;;;21.99;32.86
21395;BME280;10858;42.714;23.180;2023-04-15T05:40:47;93778.38;;;21.42;33.82
21395;BME280;10858;42.714;23.180;2023-04-15T05:43:14;93780.72;;;19.83;37.32
21395;BME280;10858;42.714;23.180;2023-04-15T05:45:40;93785.84;;;19.05;38.92
21395;BME280;10858;42.714;23.180;2023-04-15T05:48:06;93786.63;;;18.30;40.23
21395;BME280;10858;42.714;23.180;2023-04-15T05:50:33;93780.78;;;18.20;41.57
21395;BME280;10858;42.714;23.180;2023-04-15T05:52:59;93784.41;;;18.61;40.56
21395;BME280;10858;42.714;23.180;2023-04-15T05:55:26;93776.06;;;18.22;41.43
21395;BME280;10858;42.714;23.180;2023-04-15T05:57:52;93792.22;;;18.56;40.12
21395;BME280;10858;42.714;23.180;2023-04-15T06:00:19;93790.75;;;19.42;39.43
21395;BME280;10858;42.714;23.180;2023-04-15T06:02:45;93789.59;;;19.71;38.93
21395;BME280;10858;42.714;23.180;2023-04-15T06:05:11;93792.28;;;19.77;37.99
21395;BME280;10858;42.714;23.180;2023-04-15T06:07:38;93795.97;;;18.07;42.43
21395;BME280;10858;42.714;23.180;2023-04-15T06:10:05;93793.25;;;18.55;42.27
21395;BME280;10858;42.714;23.180;2023-04-15T06:12:32;93799.06;;;19.47;39.79
21395;BME280;10858;42.714;23.180;2023-04-15T06:14:58;93801.31;;;19.37;40.10
21395;BME280;10858;42.714;23.180;2023-04-15T06:17:24;93800.44;;;19.30;40.44
21395;BME280;10858;42.714;23.180;2023-04-15T06:19:50;93808.78;;;19.48;39.74
21395;BME280;10858;42.714;23.180;2023-04-15T06:22:21;93818.06;;;18.92;41.91
21395;BME280;10858;42.714;23.180;2023-04-15T06:24:48;93814.88;;;20.74;38.11
21395;BME280;10858;42.714;23.180;2023-04-15T06:27:18;93812.31;;;22.00;34.01
21395;BME280;10858;42.714;23.180;2023-04-15T06:29:44;93821.22;;;22.57;33.17
21395;BME280;10858;42.714;23.180;2023-04-15T06:32:11;93818.28;;;22.09;33.85
21395;BME280;10858;42.714;23.180;2023-04-15T06:34:37;93821.72;;;22.97;31.91
21395;BME280;10858;42.714;23.180;2023-04-15T06:37:04;93824.78;;;22.82;33.15
21395;BME280;10858;42.714;23.180;2023-04-15T06:39:30;93830.69;;;23.51;31.89
21395;BME280;10858;42.714;23.180;2023-04-15T06:41:57;93838.13;;;23.20;31.53
21395;BME280;10858;42.714;23.180;2023-04-15T06:44:23;93831.38;;;24.13;30.64
21395;BME280;10858;42.714;23.180;2023-04-15T06:46:49;93829.13;;;24.21;30.04
21395;BME280;10858;42.714;23.180;2023-04-15T06:49:16;93828.25;;;23.80;32.18
21395;BME280;10858;42.714;23.180;2023-04-15T06:51:42;93830.56;;;24.24;29.60
21395;BME280;10858;42.714;23.180;2023-04-15T06:54:08;93824.75;;;23.61;30.84
21395;BME280;10858;42.714;23.180;2023-04-15T06:56:34;93839.19;;;25.31;29.09
21395;BME280;10858;42.714;23.180;2023-04-15T06:59:01;93825.28;;;24.93;28.44
21395;BME280;10858;42.714;23.180;2023-04-15T07:01:27;93824.97;;;23.23;29.14
21395;BME280;10858;42.714;23.180;2023-04-15T07:03:53;93820.16;;;23.25;28.73
21395;BME280;10858;42.714;23.180;2023-04-15T07:06:19;93808.50;;;25.19;25.31
21395;BME280;10858;42.714;23.180;2023-04-15T07:08:46;93815.00;;;21.63;29.59
21395;BME280;10858;42.714;23.180;2023-04-15T07:11:13;93817.03;;;22.12;28.47
21395;BME280;10858;42.714;23.180;2023-04-15T07:13:40;93824.66;;;22.46;28.69
21395;BME280;10858;42.714;23.180;2023-04-15T07:16:06;93817.06;;;22.05;28.51
21395;BME280;10858;42.714;23.180;2023-04-15T07:18:32;93818.81;;;22.24;27.77
21395;BME280;10858;42.714;23.180;2023-04-15T07:20:58;93823.78;;;23.37;28.68
21395;BME280;10858;42.714;23.180;2023-04-15T07:23:25;93825.22;;;23.88;27.01
21395;BME280;10858;42.714;23.180;2023-04-15T07:25:51;93820.72;;;24.41;26.84
21395;BME280;10858;42.714;23.180;2023-04-15T07:28:18;93821.63;;;24.88;24.02
21395;BME280;10858;42.714;23.180;2023-04-15T07:30:44;93826.03;;;23.58;26.63
21395;BME280;10858;42.714;23.180;2023-04-15T07:33:10;93826.56;;;22.39;28.64
21395;BME280;10858;42.714;23.180;2023-04-15T07:35:37;93821.66;;;23.57;28.11
21395;BME280;10858;42.714;23.180;2023-04-15T07:38:03;93814.59;;;24.57;27.28
21395;BME280;10858;42.714;23.180;2023-04-15T07:40:29;93826.81;;;24.78;24.70
21395;BME280;10858;42.714;23.180;2023-04-15T07:42:56;93825.84;;;23.17;26.67
21395;BME280;10858;42.714;23.180;2023-04-15T07:45:23;93827.06;;;23.21;28.52
21395;BME280;10858;42.714;23.180;2023-04-15T07:47:49;93829.94;;;23.08;28.10
21395;BME280;10858;42.714;23.180;2023-04-15T07:50:16;93835.78;;;24.90;25.96
21395;BME280;10858;42.714;23.180;2023-04-15T07:52:43;93839.59;;;23.40;27.13
21395;BME280;10858;42.714;23.180;2023-04-15T07:55:10;93840.50;;;24.83;25.46
21395;BME280;10858;42.714;23.180;2023-04-15T07:57:37;93841.22;;;24.37;24.68
21395;BME280;10858;42.714;23.180;2023-04-15T08:00:04;93848.66;;;23.64;24.94
21395;BME280;10858;42.714;23.180;2023-04-15T08:02:32;93852.59;;;23.07;26.22
21395;BME280;10858;42.714;23.180;2023-04-15T08:04:58;93854.91;;;20.71;29.47
21395;BME280;10858;42.714;23.180;2023-04-15T08:07:26;93858.81;;;21.14;29.88
21395;BME280;10858;42.714;23.180;2023-04-15T08:09:52;93851.44;;;22.23;28.45
21395;BME280;10858;42.714;23.180;2023-04-15T08:12:18;93854.88;;;22.05;30.42
21395;BME280;10858;42.714;23.180;2023-04-15T08:14:45;93861.28;;;21.09;29.78
21395;BME280;10858;42.714;23.180;2023-04-15T08:17:12;93852.72;;;22.20;30.88
21395;BME280;10858;42.714;23.180;2023-04-15T08:19:39;93859.34;;;22.49;27.73
21395;BME280;10858;42.714;23.180;2023-04-15T08:22:05;93860.94;;;22.32;28.26
21395;BME280;10858;42.714;23.180;2023-04-15T08:24:32;93859.72;;;22.28;30.58
21395;BME280;10858;42.714;23.180;2023-04-15T08:26:58;93858.03;;;22.64;27.88
21395;BME280;10858;42.714;23.180;2023-04-15T08:29:25;93859.34;;;22.80;28.82
21395;BME280;10858;42.714;23.180;2023-04-15T08:31:52;93851.22;;;24.25;26.90
21395;BME280;10858;42.714;23.180;2023-04-15T08:34:18;93868.16;;;22.69;29.79
21395;BME280;10858;42.714;23.180;2023-04-15T08:36:45;93854.56;;;23.00;28.90
21395;BME280;10858;42.714;23.180;2023-04-15T08:39:11;93847.09;;;24.34;27.20
21395;BME280;10858;42.714;23.180;2023-04-15T08:41:50;93843.03;;;23.47;28.51
21395;BME280;10858;42.714;23.180;2023-04-15T08:44:17;93845.03;;;23.88;28.41
21395;BME280;10858;42.714;23.180;2023-04-15T08:46:43;93838.22;;;23.49;27.40
21395;BME280;10858;42.714;23.180;2023-04-15T08:49:11;93836.28;;;22.96;28.93
21395;BME280;10858;42.714;23.180;2023-04-15T08:51:40;93831.44;;;23.22;27.70
21395;BME280;10858;42.714;23.180;2023-04-15T08:54:08;93833.34;;;22.97;28.50
21395;BME280;10858;42.714;23.180;2023-04-15T08:56:37;93837.91;;;21.98;28.03
21395;BME280;10858;42.714;23.180;2023-04-15T08:59:04;93841.44;;;20.12;31.47
21395;BME280;10858;42.714;23.180;2023-04-15T09:01:31;93844.09;;;20.18;32.05
21395;BME280;10858;42.714;23.180;2023-04-15T09:03:59;93836.09;;;18.98;33.74
21395;BME280;10858;42.714;23.180;2023-04-15T09:06:27;93842.25;;;21.04;31.57
21395;BME280;10858;42.714;23.180;2023-04-15T09:08:53;93834.38;;;21.47;29.47
21395;BME280;10858;42.714;23.180;2023-04-15T09:11:21;93832.22;;;21.17;30.18
21395;BME280;10858;42.714;23.180;2023-04-15T09:13:48;93823.78;;;20.81;32.11
21395;BME280;10858;42.714;23.180;2023-04-15T09:16:14;93822.13;;;19.76;31.00
21395;BME280;10858;42.714;23.180;2023-04-15T09:18:41;93815.31;;;20.06;34.50
21395;BME280;10858;42.714;23.180;2023-04-15T09:21:09;93814.31;;;20.26;32.31
21395;BME280;10858;42.714;23.180;2023-04-15T09:23:37;93814.19;;;21.11;31.39
21395;BME280;10858;42.714;23.180;2023-04-15T09:26:04;93811.50;;;21.62;30.07
21395;BME280;10858;42.714;23.180;2023-04-15T09:28:31;93817.78;;;21.94;28.43
21395;BME280;10858;42.714;23.180;2023-04-15T09:30:58;93812.34;;;21.12;28.56
21395;BME280;10858;42.714;23.180;2023-04-15T09:33:26;93820.91;;;20.57;31.63
21395;BME280;10858;42.714;23.180;2023-04-15T09:35:58;93823.78;;;20.75;31.53
21395;BME280;10858;42.714;23.180;2023-04-15T09:38:24;93819.50;;;20.54;31.36
21395;BME280;10858;42.714;23.180;2023-04-15T09:40:50;93825.97;;;21.30;28.66
21395;BME280;10858;42.714;23.180;2023-04-15T09:43:17;93817.81;;;21.87;28.48
21395;BME280;10858;42.714;23.180;2023-04-15T09:45:53;93818.03;;;21.79;26.81
21395;BME280;10858;42.714;23.180;2023-04-15T09:48:24;93813.56;;;21.16;26.50
21395;BME280;10858;42.714;23.180;2023-04-15T09:50:59;93837.41;;;21.12;29.17
21395;BME280;10858;42.714;23.180;2023-04-15T09:53:26;93834.31;;;21.66;25.59
21395;BME280;10858;42.714;23.180;2023-04-15T09:55:57;93828.94;;;21.02;27.29
21395;BME280;10858;42.714;23.180;2023-04-15T09:58:29;93819.75;;;21.30;28.15
21395;BME280;10858;42.714;23.180;2023-04-15T10:00:56;93826.59;;;21.26;26.82
21395;BME280;10858;42.714;23.180;2023-04-15T10:03:33;93821.75;;;20.64;28.43
21395;BME280;10858;42.714;23.180;2023-04-15T10:06:02;93810.56;;;20.54;28.77
21395;BME280;10858;42.714;23.180;2023-04-15T10:08:32;93822.84;;;21.27;28.43
21395;BME280;10858;42.714;23.180;2023-04-15T10:11:01;93816.66;;;21.20;27.52
21395;BME280;10858;42.714;23.180;2023-04-15T10:13:30;93815.47;;;20.83;29.69
21395;BME280;10858;42.714;23.180;2023-04-15T10:16:06;93812.06;;;21.27;29.78
21395;BME280;10858;42.714;23.180;2023-04-15T10:18:40;93801.69;;;22.06;27.70
21395;BME280;10858;42.714;23.180;2023-04-15T10:21:08;93791.38;;;22.21;28.49
21395;BME280;10858;42.714;23.180;2023-04-15T10:23:35;93785.63;;;23.57;26.81
21395;BME280;10858;42.714;23.180;2023-04-15T10:26:03;93789.28;;;22.47;26.84
21395;BME280;10858;42.714;23.180;2023-04-15T10:28:29;93786.44;;;22.18;26.33
21395;BME280;10858;42.714;23.180;2023-04-15T10:30:56;93780.97;;;22.24;25.50
21395;BME280;10858;42.714;23.180;2023-04-15T10:33:25;93785.84;;;21.84;26.27
21395;BME280;10858;42.714;23.180;2023-04-15T10:35:53;93790.81;;;21.87;27.25
21395;BME280;10858;42.714;23.180;2023-04-15T10:44:02;93775.06;;;21.84;28.10
21395;BME280;10858;42.714;23.180;2023-04-15T10:49:11;93778.09;;;23.23;26.79
21395;BME280;10858;42.714;23.180;2023-04-15T10:51:40;93774.84;;;23.03;26.57
21395;BME280;10858;42.714;23.180;2023-04-15T10:54:15;93765.13;;;23.13;26.31
21395;BME280;10858;42.714;23.180;2023-04-15T10:56:45;93766.25;;;23.06;25.37
21395;BME280;10858;42.714;23.180;2023-04-15T10:59:16;93765.25;;;24.14;26.29
21395;BME280;10858;42.714;23.180;2023-04-15T11:02:03;93769.84;;;24.13;26.46
21395;BME280;10858;42.714;23.180;2023-04-15T11:04:55;93762.63;;;22.75;25.16
21395;BME280;10858;42.714;23.180;2023-04-15T11:12:46;93769.22;;;23.70;24.36
21395;BME280;10858;42.714;23.180;2023-04-15T11:15:36;93770.84;;;23.71;25.28
21395;BME280;10858;42.714;23.180;2023-04-15T11:20:42;93758.41;;;22.61;24.76
21395;BME280;10858;42.714;23.180;2023-04-15T11:23:10;93760.91;;;22.99;25.71
21395;BME280;10858;42.714;23.180;2023-04-15T11:25:37;93759.03;;;23.18;26.21
21395;BME280;10858;42.714;23.180;2023-04-15T11:28:03;93764.47;;;21.76;26.55
21395;BME280;10858;42.714;23.180;2023-04-15T11:30:31;93771.69;;;21.45;27.29
21395;BME280;10858;42.714;23.180;2023-04-15T11:33:00;93755.06;;;23.38;24.56
21395;BME280;10858;42.714;23.180;2023-04-15T11:35:27;93753.09;;;23.09;24.04
21395;BME280;10858;42.714;23.180;2023-04-15T11:37:54;93747.22;;;23.30;24.61
21395;BME280;10858;42.714;23.180;2023-04-15T11:40:24;93754.06;;;23.81;24.47
21395;BME280;10858;42.714;23.180;2023-04-15T11:48:16;93746.47;;;23.05;26.25
21395;BME280;10858;42.714;23.180;2023-04-15T11:50:44;93746.16;;;24.09;24.58
21395;BME280;10858;42.714;23.180;2023-04-15T11:53:12;93754.50;;;23.78;26.14
21395;BME280;10858;42.714;23.180;2023-04-15T11:55:46;93749.25;;;24.24;25.20
21395;BME280;10858;42.714;23.180;2023-04-15T11:58:20;93755.97;;;23.32;26.16
21395;BME280;10858;42.714;23.180;2023-04-15T12:03:25;93756.94;;;24.62;23.50
21395;BME280;10858;42.714;23.180;2023-04-15T12:06:11;93759.13;;;24.07;22.42
21395;BME280;10858;42.714;23.180;2023-04-15T12:11:46;93756.94;;;24.27;22.09
21395;BME280;10858;42.714;23.180;2023-04-15T12:14:18;93762.03;;;25.04;22.42
21395;BME280;10858;42.714;23.180;2023-04-15T12:16:48;93750.56;;;24.56;23.96
21395;BME280;10858;42.714;23.180;2023-04-15T12:19:16;93741.16;;;24.59;21.63
21395;BME280;10858;42.714;23.180;2023-04-15T12:21:48;93746.47;;;24.01;23.84
21395;BME280;10858;42.714;23.180;2023-04-15T12:24:15;93742.25;;;23.27;25.97
21395;BME280;10858;42.714;23.180;2023-04-15T12:26:52;93754.97;;;24.04;22.64
21395;BME280;10858;42.714;23.180;2023-04-15T12:29:19;93752.44;;;23.61;22.71
21395;BME280;10858;42.714;23.180;2023-04-15T12:34:16;93751.13;;;23.52;23.88
21395;BME280;10858;42.714;23.180;2023-04-15T12:36:43;93755.91;;;23.03;24.44
21395;BME280;10858;42.714;23.180;2023-04-15T12:39:10;93757.47;;;24.06;22.92
21395;BME280;10858;42.714;23.180;2023-04-15T12:41:36;93760.25;;;24.98;22.08
21395;BME280;10858;42.714;23.180;2023-04-15T12:44:02;93757.16;;;23.96;23.66
21395;BME280;10858;42.714;23.180;2023-04-15T12:46:29;93757.88;;;24.32;22.99
21395;BME280;10858;42.714;23.180;2023-04-15T12:48:55;93765.56;;;24.93;22.28
21395;BME280;10858;42.714;23.180;2023-04-15T12:51:21;93759.84;;;25.29;22.51
21395;BME280;10858;42.714;23.180;2023-04-15T12:53:48;93750.81;;;26.37;20.04
21395;BME280;10858;42.714;23.180;2023-04-15T12:56:14;93757.34;;;25.40;20.80
21395;BME280;10858;42.714;23.180;2023-04-15T12:58:41;93754.22;;;24.50;22.34
21395;BME280;10858;42.714;23.180;2023-04-15T13:01:08;93754.91;;;24.22;20.18
21395;BME280;10858;42.714;23.180;2023-04-15T13:03:35;93760.19;;;23.88;23.24
21395;BME280;10858;42.714;23.180;2023-04-15T13:06:01;93765.88;;;23.98;21.18
21395;BME280;10858;42.714;23.180;2023-04-15T13:08:30;93756.19;;;24.08;22.61
21395;BME280;10858;42.714;23.180;2023-04-15T13:10:56;93762.38;;;24.50;22.18
21395;BME280;10858;42.714;23.180;2023-04-15T13:13:22;93763.88;;;25.15;23.72
21395;BME280;10858;42.714;23.180;2023-04-15T13:15:49;93761.38;;;25.49;21.46
21395;BME280;10858;42.714;23.180;2023-04-15T13:18:15;93758.38;;;24.99;20.56
21395;BME280;10858;42.714;23.180;2023-04-15T13:20:41;93757.34;;;25.79;20.97
21395;BME280;10858;42.714;23.180;2023-04-15T13:23:08;93760.59;;;25.13;21.69